createdAt,value
2022-10-18T00:00:33.253Z,1002.27
2022-10-18T00:01:33.249Z,1002.19
2022-10-18T00:02:33.274Z,1002.20
2022-10-18T00:03:33.292Z,1002.08
2022-10-18T00:04:33.227Z,1002.13
2022-10-18T00:05:33.210Z,1002.13
2022-10-18T00:06:33.224Z,1002.08
2022-10-18T00:07:33.424Z,1002.09
2022-10-18T00:08:33.213Z,1002.09
2022-10-18T00:09:33.174Z,1002.05
2022-10-18T00:10:33.176Z,1002.02
2022-10-18T00:11:33.174Z,1002.01
2022-10-18T00:12:33.205Z,1002.07
2022-10-18T00:13:33.175Z,1002.07
2022-10-18T00:14:33.143Z,1001.99
2022-10-18T00:15:33.136Z,1002.06
2022-10-18T00:16:33.144Z,1002.05
2022-10-18T00:17:33.364Z,1002.04
2022-10-18T00:18:33.139Z,1002.07
2022-10-18T00:19:33.105Z,1002.09
2022-10-18T00:20:33.104Z,1002.03
2022-10-18T00:21:33.142Z,1002.13
2022-10-18T00:22:33.412Z,1002.14
2022-10-18T00:23:33.096Z,1002.17
2022-10-18T00:24:33.073Z,1002.17
2022-10-18T00:25:33.070Z,1002.12
2022-10-18T00:26:33.059Z,1002.09
2022-10-18T00:27:33.045Z,1002.18
2022-10-18T00:28:33.096Z,1002.12
2022-10-18T00:29:33.036Z,1002.10
2022-10-18T00:30:33.030Z,1002.19
2022-10-18T00:31:33.012Z,1002.15
2022-10-18T00:32:33.419Z,1002.14
2022-10-18T00:33:33.034Z,1002.13
2022-10-18T00:34:32.987Z,1002.23
2022-10-18T00:35:33.006Z,1002.23
2022-10-18T00:36:32.972Z,1002.17
2022-10-18T00:37:32.976Z,1002.18
2022-10-18T00:38:32.991Z,1002.23
2022-10-18T00:39:32.952Z,1002.20
2022-10-18T00:40:32.947Z,1002.21
2022-10-18T00:41:32.934Z,1002.25
2022-10-18T00:42:33.365Z,1002.21
2022-10-18T00:43:32.917Z,1002.19
2022-10-18T00:44:32.939Z,1002.14
2022-10-18T00:45:32.905Z,1002.18
2022-10-18T00:46:32.893Z,1002.22
2022-10-18T00:47:32.893Z,1002.11
2022-10-18T00:48:32.879Z,1002.14
2022-10-18T00:49:32.901Z,1002.16
2022-10-18T00:50:32.866Z,1002.12
2022-10-18T00:51:32.855Z,1002.15
2022-10-18T00:52:33.137Z,1002.13
2022-10-18T00:53:32.835Z,1002.21
2022-10-18T00:54:32.852Z,1002.19
2022-10-18T00:55:32.829Z,1002.17
2022-10-18T00:56:32.806Z,1002.18
2022-10-18T00:57:33.808Z,1002.15
2022-10-18T00:58:32.796Z,1002.17
2022-10-18T00:59:32.820Z,1002.19
2022-10-18T01:00:32.785Z,1002.20
2022-10-18T01:01:32.794Z,1002.17
2022-10-18T01:02:33.071Z,1002.26
2022-10-18T01:03:32.751Z,1002.26
2022-10-18T01:04:32.790Z,1002.22
2022-10-18T01:05:32.739Z,1002.27
2022-10-18T01:06:32.729Z,1002.22
2022-10-18T01:07:32.926Z,1002.27
2022-10-18T01:08:32.710Z,1002.29
2022-10-18T01:09:32.726Z,1002.23
2022-10-18T01:10:32.698Z,1002.27
2022-10-18T01:11:32.696Z,1002.29
2022-10-18T01:12:32.678Z,1002.23
2022-10-18T01:13:32.675Z,1002.24
2022-10-18T01:14:32.691Z,1002.23
2022-10-18T01:15:32.661Z,1002.22
2022-10-18T01:16:32.646Z,1002.18
2022-10-18T01:17:32.976Z,1002.17
2022-10-18T01:18:32.636Z,1002.15
2022-10-18T01:19:32.645Z,1002.13
2022-10-18T01:20:32.621Z,1002.19
2022-10-18T01:21:32.607Z,1002.14
2022-10-18T01:22:32.599Z,1002.14
2022-10-18T01:23:32.596Z,1002.22
2022-10-18T01:24:32.614Z,1002.19
2022-10-18T01:25:32.578Z,1002.15
2022-10-18T01:26:32.567Z,1002.15
2022-10-18T01:27:32.770Z,1002.21
2022-10-18T01:28:32.624Z,1002.23
2022-10-18T01:29:32.573Z,1002.21
2022-10-18T01:30:32.536Z,1002.22
2022-10-18T01:31:32.534Z,1002.16
2022-10-18T01:32:32.527Z,1002.17
2022-10-18T01:33:32.516Z,1002.19
2022-10-18T01:34:32.538Z,1002.15
2022-10-18T01:35:32.503Z,1002.20
2022-10-18T01:36:32.494Z,1002.18
2022-10-18T01:37:32.812Z,1002.16
2022-10-18T01:38:32.478Z,1002.17
2022-10-18T01:39:32.490Z,1002.14
2022-10-18T01:40:32.461Z,1002.14
2022-10-18T01:41:32.451Z,1002.13
2022-10-18T01:42:32.444Z,1002.14
2022-10-18T01:43:32.437Z,1002.12
2022-10-18T01:44:32.458Z,1002.14
2022-10-18T01:45:32.419Z,1002.16
2022-10-18T01:46:32.405Z,1002.11
2022-10-18T01:47:32.742Z,1002.15
2022-10-18T01:48:32.396Z,1002.11
2022-10-18T01:49:32.409Z,1002.06
2022-10-18T01:50:32.376Z,1002.08
2022-10-18T01:51:32.366Z,1002.11
2022-10-18T01:52:32.707Z,1002.18
2022-10-18T01:53:32.357Z,1002.15
2022-10-18T01:54:32.369Z,1002.20
2022-10-18T01:55:32.333Z,1002.16
2022-10-18T01:56:32.329Z,1002.18
2022-10-18T01:57:32.317Z,1002.12
2022-10-18T01:58:32.324Z,1002.15
2022-10-18T01:59:32.333Z,1002.13
2022-10-18T02:00:32.292Z,1002.16
2022-10-18T02:01:32.288Z,1002.11
2022-10-18T02:02:32.487Z,1002.01
2022-10-18T02:03:32.269Z,1002.00
2022-10-18T02:04:32.294Z,1002.02
2022-10-18T02:05:32.263Z,1002.02
2022-10-18T02:06:32.254Z,1002.01
2022-10-18T02:07:32.241Z,1002.00
2022-10-18T02:08:32.246Z,1001.94
2022-10-18T02:09:32.249Z,1001.98
2022-10-18T02:10:32.220Z,1001.95
2022-10-18T02:11:32.217Z,1001.94
2022-10-18T02:12:32.514Z,1001.90
2022-10-18T02:13:32.200Z,1001.78
2022-10-18T02:14:32.216Z,1001.79
2022-10-18T02:15:32.183Z,1001.72
2022-10-18T02:16:32.180Z,1001.77
2022-10-18T02:17:32.166Z,1001.75
2022-10-18T02:18:32.173Z,1001.78
2022-10-18T02:19:32.179Z,1001.74
2022-10-18T02:20:32.146Z,1001.69
2022-10-18T02:21:32.146Z,1001.63
2022-10-18T02:22:32.350Z,1001.62
2022-10-18T02:23:32.118Z,1001.61
2022-10-18T02:24:32.151Z,1001.57
2022-10-18T02:25:32.105Z,1001.64
2022-10-18T02:26:32.097Z,1001.64
2022-10-18T02:27:32.100Z,1001.57
2022-10-18T02:28:32.089Z,1001.60
2022-10-18T02:29:32.098Z,1001.58
2022-10-18T02:30:32.074Z,1001.60
2022-10-18T02:31:32.057Z,1001.58
2022-10-18T02:32:32.627Z,1001.54
2022-10-18T02:33:32.046Z,1001.51
2022-10-18T02:34:32.039Z,1001.44
2022-10-18T02:35:32.064Z,1001.54
2022-10-18T02:36:32.022Z,1001.52
2022-10-18T02:37:32.020Z,1001.62
2022-10-18T02:38:32.014Z,1001.62
2022-10-18T02:39:32.004Z,1001.56
2022-10-18T02:40:32.010Z,1001.61
2022-10-18T02:41:31.978Z,1001.63
2022-10-18T02:42:32.174Z,1001.71
2022-10-18T02:43:31.962Z,1001.74
2022-10-18T02:44:31.956Z,1001.77
2022-10-18T02:45:31.973Z,1001.77
2022-10-18T02:46:31.966Z,1001.86
2022-10-18T02:47:32.143Z,1001.84
2022-10-18T02:48:31.921Z,1001.86
2022-10-18T02:49:31.913Z,1001.87
2022-10-18T02:50:31.935Z,1001.72
2022-10-18T02:51:31.909Z,1001.71
2022-10-18T02:52:31.890Z,1001.72
2022-10-18T02:53:31.880Z,1001.71
2022-10-18T02:54:31.875Z,1001.77
2022-10-18T02:55:31.900Z,1001.73
2022-10-18T02:56:31.861Z,1001.82
2022-10-18T02:57:32.119Z,1001.81
2022-10-18T02:58:31.849Z,1001.90
2022-10-18T02:59:31.835Z,1001.95
2022-10-18T03:00:31.844Z,1001.87
2022-10-18T03:01:32.857Z,1001.83
2022-10-18T03:02:31.809Z,1001.73
2022-10-18T03:03:31.807Z,1001.68
2022-10-18T03:04:31.795Z,1001.68
2022-10-18T03:05:31.808Z,1001.68
2022-10-18T03:06:31.778Z,1001.72
2022-10-18T03:07:31.950Z,1001.74
2022-10-18T03:08:31.762Z,1001.74
2022-10-18T03:09:31.748Z,1001.85
2022-10-18T03:10:31.773Z,1001.76
2022-10-18T03:11:31.736Z,1001.76
2022-10-18T03:12:31.726Z,1001.76
2022-10-18T03:13:31.730Z,1001.80
2022-10-18T03:14:31.714Z,1001.71
2022-10-18T03:15:31.726Z,1001.77
2022-10-18T03:16:31.695Z,1001.75
2022-10-18T03:17:31.933Z,1001.79
2022-10-18T03:18:31.678Z,1001.79
2022-10-18T03:19:31.674Z,1001.79
2022-10-18T03:20:31.696Z,1001.78
2022-10-18T03:21:31.660Z,1001.73
2022-10-18T03:22:31.655Z,1001.75
2022-10-18T03:23:31.640Z,1001.79
2022-10-18T03:24:31.631Z,1001.84
2022-10-18T03:25:31.651Z,1001.81
2022-10-18T03:26:31.616Z,1001.84
2022-10-18T03:27:32.017Z,1001.86
2022-10-18T03:28:31.635Z,1001.86
2022-10-18T03:29:31.595Z,1001.89
2022-10-18T03:30:31.579Z,1001.84
2022-10-18T03:32:31.907Z,1001.90
2022-10-18T03:33:31.567Z,1001.98
2022-10-18T03:34:31.569Z,1001.91
2022-10-18T03:35:31.576Z,1001.95
2022-10-18T03:36:31.540Z,1001.94
2022-10-18T03:37:31.525Z,1001.91
2022-10-18T03:38:31.518Z,1001.79
2022-10-18T03:39:31.513Z,1001.70
2022-10-18T03:41:32.527Z,1001.72
2022-10-18T03:42:31.899Z,1001.75
2022-10-18T03:43:31.479Z,1001.73
2022-10-18T03:44:31.480Z,1001.78
2022-10-18T03:45:31.745Z,1001.84
2022-10-18T03:46:31.474Z,1001.76
2022-10-18T03:47:31.477Z,1001.75
2022-10-18T03:48:31.441Z,1001.75
2022-10-18T03:49:31.437Z,1001.75
2022-10-18T03:50:31.433Z,1001.72
2022-10-18T03:51:31.417Z,1001.78
2022-10-18T03:52:31.895Z,1001.77
2022-10-18T03:53:31.434Z,1001.68
2022-10-18T03:54:31.399Z,1001.75
2022-10-18T03:55:31.387Z,1001.72
2022-10-18T03:56:31.386Z,1001.75
2022-10-18T03:57:31.399Z,1001.76
2022-10-18T03:58:31.428Z,1001.76
2022-10-18T03:59:31.359Z,1001.72
2022-10-18T04:00:31.343Z,1001.79
2022-10-18T04:01:31.452Z,1001.80
2022-10-18T04:02:31.642Z,1001.83
2022-10-18T04:03:31.356Z,1001.77
2022-10-18T04:04:31.319Z,1001.75
2022-10-18T04:05:31.319Z,1001.73
2022-10-18T04:06:31.290Z,1001.73
2022-10-18T04:07:32.357Z,1001.70
2022-10-18T04:08:31.286Z,1001.62
2022-10-18T04:09:31.277Z,1001.60
2022-10-18T04:10:31.275Z,1001.60
2022-10-18T04:11:31.269Z,1001.60
2022-10-18T04:12:31.592Z,1001.59
2022-10-18T04:13:31.249Z,1001.70
2022-10-18T04:14:31.243Z,1001.73
2022-10-18T04:15:31.236Z,1001.75
2022-10-18T04:16:31.266Z,1001.76
2022-10-18T04:17:31.431Z,1001.78
2022-10-18T04:18:31.206Z,1001.81
2022-10-18T04:19:31.204Z,1001.69
2022-10-18T04:20:31.190Z,1001.74
2022-10-18T04:21:31.182Z,1001.70
2022-10-18T04:22:31.206Z,1001.66
2022-10-18T04:23:32.806Z,1001.69
2022-10-18T04:24:32.156Z,1001.85
2022-10-18T04:25:31.210Z,1001.82
2022-10-18T04:26:31.140Z,1001.86
2022-10-18T04:27:31.428Z,1001.85
2022-10-18T04:28:31.157Z,1001.88
2022-10-18T04:29:31.118Z,1001.80
2022-10-18T04:30:31.114Z,1001.70
2022-10-18T04:31:31.105Z,1001.65
2022-10-18T04:32:31.130Z,1001.69
2022-10-18T04:33:31.092Z,1001.66
2022-10-18T04:34:31.155Z,1001.63
2022-10-18T04:35:31.072Z,1001.57
2022-10-18T04:36:31.071Z,1001.57
2022-10-18T04:37:31.436Z,1001.57
2022-10-18T04:38:31.042Z,1001.55
2022-10-18T04:39:31.051Z,1001.54
2022-10-18T04:40:31.034Z,1001.55
2022-10-18T04:41:31.029Z,1001.50
2022-10-18T04:42:31.018Z,1001.51
2022-10-18T04:43:31.031Z,1001.58
2022-10-18T04:44:31.006Z,1001.56
2022-10-18T04:45:30.996Z,1001.54
2022-10-18T04:46:30.982Z,1001.63
2022-10-18T04:47:31.325Z,1001.58
2022-10-18T04:48:30.974Z,1001.73
2022-10-18T04:49:30.961Z,1001.75
2022-10-18T04:50:30.956Z,1001.89
2022-10-18T04:51:30.946Z,1001.94
2022-10-18T04:52:30.972Z,1001.94
2022-10-18T04:53:30.933Z,1001.95
2022-10-18T04:54:30.934Z,1001.97
2022-10-18T04:55:30.914Z,1001.99
2022-10-18T04:56:30.912Z,1001.93
2022-10-18T04:57:31.261Z,1001.97
2022-10-18T04:58:30.883Z,1001.90
2022-10-18T04:59:30.877Z,1001.91
2022-10-18T05:00:30.863Z,1001.90
2022-10-18T05:01:31.925Z,1001.80
2022-10-18T05:02:31.319Z,1001.70
2022-10-18T05:03:30.846Z,1001.74
2022-10-18T05:04:30.833Z,1001.77
2022-10-18T05:05:50.012Z,1001.76
2022-10-18T05:06:32.820Z,1001.75
2022-10-18T05:07:30.832Z,1001.80
2022-10-18T05:08:30.802Z,1001.83
2022-10-18T05:09:30.792Z,1001.89
2022-10-18T05:10:30.789Z,1001.88
2022-10-18T05:11:30.778Z,1001.97
2022-10-18T05:12:31.069Z,1001.87
2022-10-18T05:13:30.759Z,1001.85
2022-10-18T05:14:30.749Z,1001.80
2022-10-18T05:15:30.744Z,1001.91
2022-10-18T05:16:30.732Z,1001.80
2022-10-18T05:17:30.763Z,1001.73
2022-10-18T05:18:30.721Z,1001.69
2022-10-18T05:19:30.715Z,1001.66
2022-10-18T05:20:30.711Z,1001.62
2022-10-18T05:21:30.704Z,1001.53
2022-10-18T05:22:30.906Z,1001.55
2022-10-18T05:23:30.707Z,1001.54
2022-10-18T05:24:30.677Z,1001.58
2022-10-18T05:25:30.670Z,1001.61
2022-10-18T05:26:30.655Z,1001.64
2022-10-18T05:27:30.693Z,1001.68
2022-10-18T05:28:46.192Z,1001.56
2022-10-18T05:29:32.640Z,1001.58
2022-10-18T05:30:30.624Z,1001.56
2022-10-18T05:31:30.616Z,1001.56
2022-10-18T05:32:31.026Z,1001.57
2022-10-18T05:33:30.638Z,1001.54
2022-10-18T05:34:30.597Z,1001.57
2022-10-18T05:35:30.587Z,1001.58
2022-10-18T05:36:30.579Z,1001.59
2022-10-18T05:37:30.574Z,1001.50
2022-10-18T05:38:30.621Z,1001.57
2022-10-18T05:39:30.550Z,1001.58
2022-10-18T05:40:30.544Z,1001.63
2022-10-18T05:41:30.545Z,1001.58
2022-10-18T05:42:31.762Z,1001.56
2022-10-18T05:43:30.545Z,1001.58
2022-10-18T05:44:30.519Z,1001.59
2022-10-18T05:45:30.510Z,1001.59
2022-10-18T05:46:30.497Z,1001.58
2022-10-18T05:47:30.550Z,1001.63
2022-10-18T05:48:30.511Z,1001.61
2022-10-18T05:49:30.474Z,1001.59
2022-10-18T05:50:30.464Z,1001.64
2022-10-18T05:51:30.453Z,1001.60
2022-10-18T05:52:30.778Z,1001.57
2022-10-18T05:53:38.340Z,1001.64
2022-10-18T05:54:32.550Z,1001.59
2022-10-18T05:55:30.426Z,1001.62
2022-10-18T05:56:30.448Z,1001.62
2022-10-18T05:57:30.633Z,1001.60
2022-10-18T05:58:30.428Z,1001.57
2022-10-18T05:59:30.384Z,1001.58
2022-10-18T06:00:30.387Z,1001.60
2022-10-18T06:01:30.372Z,1001.60
2022-10-18T06:02:30.414Z,1001.60
2022-10-18T06:03:30.383Z,1001.56
2022-10-18T06:04:30.348Z,1001.48
2022-10-18T06:05:30.381Z,1001.51
2022-10-18T06:06:30.335Z,1001.44
2022-10-18T06:07:30.682Z,1001.51
2022-10-18T06:08:30.347Z,1001.54
2022-10-18T06:09:30.310Z,1001.53
2022-10-18T06:10:30.329Z,1001.50
2022-10-18T06:11:30.298Z,1001.50
2022-10-18T06:12:30.305Z,1001.54
2022-10-18T06:13:32.405Z,1001.47
2022-10-18T06:14:30.268Z,1001.46
2022-10-18T06:15:30.262Z,1001.42
2022-10-18T06:16:32.548Z,1001.43
2022-10-18T06:17:32.605Z,1001.45
2022-10-18T06:18:30.278Z,1001.54
2022-10-18T06:19:30.236Z,1001.50
2022-10-18T06:20:30.223Z,1001.46
2022-10-18T06:21:30.206Z,1001.46
2022-10-18T06:22:30.205Z,1001.45
2022-10-18T06:23:30.225Z,1001.43
2022-10-18T06:24:30.189Z,1001.39
2022-10-18T06:25:30.180Z,1001.35
2022-10-18T06:26:30.172Z,1001.39
2022-10-18T06:27:30.439Z,1001.32
2022-10-18T06:28:30.239Z,1001.37
2022-10-18T06:29:30.150Z,1001.35
2022-10-18T06:30:30.141Z,1001.36
2022-10-18T06:31:30.135Z,1001.36
2022-10-18T06:32:30.131Z,1001.37
2022-10-18T06:33:30.141Z,1001.35
2022-10-18T06:34:30.111Z,1001.40
2022-10-18T06:35:30.105Z,1001.36
2022-10-18T06:36:30.101Z,1001.41
2022-10-18T06:37:30.378Z,1001.44
2022-10-18T06:38:30.112Z,1001.43
2022-10-18T06:39:30.073Z,1001.38
2022-10-18T06:40:30.060Z,1001.42
2022-10-18T06:41:30.057Z,1001.44
2022-10-18T06:42:30.198Z,1001.37
2022-10-18T06:43:30.074Z,1001.42
2022-10-18T06:44:30.036Z,1001.38
2022-10-18T06:45:30.033Z,1001.41
2022-10-18T06:46:30.031Z,1001.41
2022-10-18T06:47:30.029Z,1001.43
2022-10-18T06:48:30.033Z,1001.42
2022-10-18T06:49:29.997Z,1001.45
2022-10-18T06:50:29.991Z,1001.47
2022-10-18T06:51:29.980Z,1001.47
2022-10-18T06:52:30.266Z,1001.52
2022-10-18T06:53:29.962Z,1001.53
2022-10-18T06:54:29.978Z,1001.51
2022-10-18T06:55:29.974Z,1001.57
2022-10-18T06:56:29.946Z,1001.58
2022-10-18T06:57:29.936Z,1001.56
2022-10-18T06:58:29.919Z,1001.65
2022-10-18T06:59:31.317Z,1001.65
2022-10-18T07:00:29.899Z,1001.69
2022-10-18T07:01:29.941Z,1001.72
2022-10-18T07:02:30.195Z,1001.71
2022-10-18T07:03:30.882Z,1001.67
2022-10-18T07:04:29.899Z,1001.73
2022-10-18T07:05:29.911Z,1001.72
2022-10-18T07:06:29.856Z,1001.72
2022-10-18T07:07:30.088Z,1001.68
2022-10-18T07:08:29.848Z,1001.65
2022-10-18T07:09:29.860Z,1001.68
2022-10-18T07:10:29.829Z,1001.63
2022-10-18T07:11:29.818Z,1001.59
2022-10-18T07:12:29.814Z,1001.64
2022-10-18T07:13:32.852Z,1001.62
2022-10-18T07:14:30.822Z,1001.68
2022-10-18T07:15:29.819Z,1001.70
2022-10-18T07:16:29.783Z,1001.73
2022-10-18T07:17:30.086Z,1001.73
2022-10-18T07:18:29.762Z,1001.77
2022-10-18T07:19:29.787Z,1001.75
2022-10-18T07:20:29.746Z,1001.78
2022-10-18T07:21:29.744Z,1001.86
2022-10-18T07:22:30.501Z,1001.82
2022-10-18T07:23:30.723Z,1001.93
2022-10-18T07:24:29.786Z,1001.89
2022-10-18T07:25:30.588Z,1001.91
2022-10-18T07:26:30.703Z,1001.92
2022-10-18T07:27:30.010Z,1001.89
2022-10-18T07:28:29.716Z,1001.97
2022-10-18T07:29:29.697Z,1001.93
2022-10-18T07:30:29.667Z,1001.99
2022-10-18T07:31:29.658Z,1001.97
2022-10-18T07:32:29.671Z,1002.05
2022-10-18T07:33:29.645Z,1002.03
2022-10-18T07:34:29.665Z,1002.06
2022-10-18T07:35:29.635Z,1002.09
2022-10-18T07:36:29.622Z,1002.07
2022-10-18T07:37:30.292Z,1002.08
2022-10-18T07:38:29.623Z,1002.10
2022-10-18T07:39:29.633Z,1002.06
2022-10-18T07:40:29.597Z,1002.15
2022-10-18T07:41:29.588Z,1002.09
2022-10-18T07:42:29.579Z,1002.10
2022-10-18T07:43:29.573Z,1002.12
2022-10-18T07:44:29.591Z,1002.15
2022-10-18T07:45:29.628Z,1002.14
2022-10-18T07:46:29.554Z,1002.22
2022-10-18T07:47:31.357Z,1002.18
2022-10-18T07:48:29.540Z,1002.19
2022-10-18T07:49:29.555Z,1002.15
2022-10-18T07:50:29.506Z,1002.17
2022-10-18T07:51:30.516Z,1002.17
2022-10-18T07:52:29.514Z,1002.18
2022-10-18T07:53:29.499Z,1002.25
2022-10-18T07:54:29.512Z,1002.21
2022-10-18T07:55:29.478Z,1002.24
2022-10-18T07:56:29.478Z,1002.26
2022-10-18T07:57:29.676Z,1002.23
2022-10-18T07:58:29.488Z,1002.25
2022-10-18T07:59:29.506Z,1002.17
2022-10-18T08:00:29.439Z,1002.12
2022-10-18T08:01:29.502Z,1002.20
2022-10-18T08:02:29.422Z,1002.16
2022-10-18T08:03:29.419Z,1002.25
2022-10-18T08:04:29.431Z,1002.22
2022-10-18T08:05:29.437Z,1002.19
2022-10-18T08:06:29.397Z,1002.16
2022-10-18T08:07:29.494Z,1002.16
2022-10-18T08:08:29.376Z,1002.20
2022-10-18T08:09:29.396Z,1002.17
2022-10-18T08:10:29.359Z,1002.19
2022-10-18T08:11:30.353Z,1002.16
2022-10-18T08:12:29.341Z,1002.23
2022-10-18T08:13:29.336Z,1002.20
2022-10-18T08:14:29.357Z,1002.19
2022-10-18T08:15:29.324Z,1002.22
2022-10-18T08:16:29.386Z,1002.27
2022-10-18T08:17:29.404Z,1002.24
2022-10-18T08:18:29.303Z,1002.17
2022-10-18T08:19:29.318Z,1002.19
2022-10-18T08:20:31.371Z,1002.26
2022-10-18T08:21:30.277Z,1002.26
2022-10-18T08:22:29.263Z,1002.29
2022-10-18T08:23:29.253Z,1002.23
2022-10-18T08:24:29.276Z,1002.27
2022-10-18T08:25:29.289Z,1002.33
2022-10-18T08:26:29.232Z,1002.39
2022-10-18T08:27:29.385Z,1002.30
2022-10-18T08:28:29.271Z,1002.38
2022-10-18T08:29:31.662Z,1002.32
2022-10-18T08:30:30.207Z,1002.34
2022-10-18T08:31:29.206Z,1002.35
2022-10-18T08:32:29.437Z,1002.41
2022-10-18T08:33:29.179Z,1002.44
2022-10-18T08:34:29.204Z,1002.37
2022-10-18T08:35:29.161Z,1002.39
2022-10-18T08:36:29.152Z,1002.41
2022-10-18T08:37:29.548Z,1002.48
2022-10-18T08:38:29.136Z,1002.48
2022-10-18T08:39:29.158Z,1002.44
2022-10-18T08:40:29.134Z,1002.41
2022-10-18T08:41:29.116Z,1002.43
2022-10-18T08:42:29.441Z,1002.45
2022-10-18T08:43:29.139Z,1002.46
2022-10-18T08:44:29.127Z,1002.49
2022-10-18T08:45:42.057Z,1002.55
2022-10-18T08:46:31.083Z,1002.50
2022-10-18T08:47:29.222Z,1002.60
2022-10-18T08:48:29.060Z,1002.54
2022-10-18T08:49:29.086Z,1002.63
2022-10-18T08:50:29.044Z,1002.60
2022-10-18T08:51:29.045Z,1002.55
2022-10-18T08:52:29.098Z,1002.62
2022-10-18T08:53:29.022Z,1002.65
2022-10-18T08:54:29.045Z,1002.57
2022-10-18T08:55:29.013Z,1002.66
2022-10-18T08:56:28.994Z,1002.58
2022-10-18T08:57:29.268Z,1002.57
2022-10-18T08:58:28.980Z,1002.55
2022-10-18T08:59:28.971Z,1002.59
2022-10-18T09:00:28.995Z,1002.59
2022-10-18T09:01:28.964Z,1002.63
2022-10-18T09:02:28.980Z,1002.62
2022-10-18T09:03:28.999Z,1002.61
2022-10-18T09:04:28.932Z,1002.58
2022-10-18T09:05:28.957Z,1002.57
2022-10-18T09:06:28.917Z,1002.60
2022-10-18T09:07:28.918Z,1002.62
2022-10-18T09:08:28.918Z,1002.56
2022-10-18T09:09:28.905Z,1002.64
2022-10-18T09:10:28.912Z,1002.65
2022-10-18T09:11:28.881Z,1002.63
2022-10-18T09:12:29.098Z,1002.59
2022-10-18T09:13:28.873Z,1002.65
2022-10-18T09:14:28.859Z,1002.67
2022-10-18T09:15:28.879Z,1002.63
2022-10-18T09:16:28.844Z,1002.65
2022-10-18T09:17:28.835Z,1002.59
2022-10-18T09:18:28.827Z,1002.64
2022-10-18T09:19:28.816Z,1002.62
2022-10-18T09:20:28.833Z,1002.63
2022-10-18T09:21:28.803Z,1002.60
2022-10-18T09:22:28.979Z,1002.64
2022-10-18T09:23:28.790Z,1002.62
2022-10-18T09:24:28.782Z,1002.65
2022-10-18T09:25:28.798Z,1002.67
2022-10-18T09:26:28.772Z,1002.65
2022-10-18T09:27:28.759Z,1002.73
2022-10-18T09:28:28.774Z,1002.78
2022-10-18T09:29:28.744Z,1002.75
2022-10-18T09:30:28.761Z,1002.70
2022-10-18T09:31:28.761Z,1002.77
2022-10-18T09:32:28.731Z,1002.76
2022-10-18T09:33:28.710Z,1002.70
2022-10-18T09:34:28.704Z,1002.68
2022-10-18T09:35:28.736Z,1002.64
2022-10-18T09:36:28.689Z,1002.72
2022-10-18T09:37:28.677Z,1002.71
2022-10-18T09:38:29.696Z,1002.69
2022-10-18T09:39:28.663Z,1002.77
2022-10-18T09:40:28.684Z,1002.76
2022-10-18T09:41:28.645Z,1002.72
2022-10-18T09:42:28.676Z,1002.74
2022-10-18T09:43:28.631Z,1002.76
2022-10-18T09:44:28.623Z,1002.74
2022-10-18T09:45:28.640Z,1002.74
2022-10-18T09:46:28.605Z,1002.74
2022-10-18T09:47:28.596Z,1002.73
2022-10-18T09:48:28.596Z,1002.83
2022-10-18T09:49:28.577Z,1002.73
2022-10-18T09:50:28.600Z,1002.74
2022-10-18T09:51:28.573Z,1002.73
2022-10-18T09:52:28.788Z,1002.70
2022-10-18T09:53:28.550Z,1002.76
2022-10-18T09:54:28.541Z,1002.74
2022-10-18T09:55:28.565Z,1002.76
2022-10-18T09:56:28.522Z,1002.79
2022-10-18T09:57:28.571Z,1002.76
2022-10-18T09:58:28.517Z,1002.71
2022-10-18T09:59:28.500Z,1002.78
2022-10-18T10:00:28.507Z,1002.80
2022-10-18T10:01:28.516Z,1002.77
2022-10-18T10:02:28.496Z,1002.79
2022-10-18T10:03:28.464Z,1002.80
2022-10-18T10:04:28.455Z,1002.86
2022-10-18T10:05:28.452Z,1002.81
2022-10-18T10:06:28.470Z,1002.87
2022-10-18T10:07:31.085Z,1002.87
2022-10-18T10:08:29.425Z,1002.89
2022-10-18T10:09:28.428Z,1002.81
2022-10-18T10:10:28.410Z,1002.88
2022-10-18T10:11:28.430Z,1002.89
2022-10-18T10:12:28.397Z,1002.90
2022-10-18T10:13:28.387Z,1002.96
2022-10-18T10:14:28.383Z,1002.92
2022-10-18T10:15:31.386Z,1002.89
2022-10-18T10:16:29.383Z,1002.91
2022-10-18T10:17:28.342Z,1002.89
2022-10-18T10:18:29.348Z,1002.90
2022-10-18T10:19:28.334Z,1002.93
2022-10-18T10:20:28.330Z,1002.91
2022-10-18T10:21:28.344Z,1002.94
2022-10-18T10:22:28.313Z,1002.90
2022-10-18T10:23:28.307Z,1002.98
2022-10-18T10:24:30.459Z,1002.95
2022-10-18T10:25:28.294Z,1002.93
2022-10-18T10:26:28.310Z,1002.99
2022-10-18T10:27:28.279Z,1003.00
2022-10-18T10:28:28.309Z,1002.92
2022-10-18T10:30:30.267Z,1003.01
2022-10-18T10:31:28.272Z,1002.97
2022-10-18T10:33:28.216Z,1002.99
2022-10-18T10:34:29.226Z,1002.94
2022-10-18T10:35:42.136Z,1003.03
2022-10-18T10:36:30.232Z,1003.01
2022-10-18T10:37:28.192Z,1003.01
2022-10-18T10:38:28.187Z,1002.97
2022-10-18T10:39:28.181Z,1003.04
2022-10-18T10:40:28.787Z,1003.00
2022-10-18T10:41:29.243Z,1002.99
2022-10-18T10:42:28.157Z,1003.09
2022-10-18T10:43:42.569Z,1003.00
2022-10-18T10:44:30.147Z,1002.98
2022-10-18T10:45:28.137Z,1003.00
2022-10-18T10:46:28.150Z,1003.03
2022-10-18T10:47:28.121Z,1003.01
2022-10-18T10:48:32.990Z,1003.03
2022-10-18T10:49:45.494Z,1003.01
2022-10-18T10:50:30.130Z,1003.02
2022-10-18T10:51:28.116Z,1002.96
2022-10-18T10:52:28.802Z,1003.00
2022-10-18T10:53:29.066Z,1003.02
2022-10-18T10:54:28.056Z,1003.07
2022-10-18T10:55:35.325Z,1003.00
2022-10-18T10:56:30.081Z,1003.05
2022-10-18T10:57:28.043Z,1003.02
2022-10-18T10:58:28.038Z,1003.10
2022-10-18T10:59:28.021Z,1003.06
2022-10-18T11:00:28.011Z,1003.16
2022-10-18T11:01:28.030Z,1003.13
2022-10-18T11:02:27.997Z,1003.17
2022-10-18T11:03:29.373Z,1003.21
2022-10-18T11:04:28.982Z,1003.19
2022-10-18T11:05:27.973Z,1003.17
2022-10-18T11:06:27.999Z,1003.13
2022-10-18T11:07:27.959Z,1003.22
2022-10-18T11:08:27.957Z,1003.25
2022-10-18T11:09:27.950Z,1003.18
2022-10-18T11:10:27.937Z,1003.18
2022-10-18T11:11:27.996Z,1003.22
2022-10-18T11:12:27.918Z,1003.25
2022-10-18T11:13:27.912Z,1003.31
2022-10-18T11:14:27.913Z,1003.28
2022-10-18T11:15:27.892Z,1003.29
2022-10-18T11:16:27.888Z,1003.33
2022-10-18T11:17:27.916Z,1003.29
2022-10-18T11:18:27.873Z,1003.29
2022-10-18T11:19:28.477Z,1003.29
2022-10-18T11:20:28.858Z,1003.29
2022-10-18T11:21:27.861Z,1003.27
2022-10-18T11:22:27.864Z,1003.27
2022-10-18T11:23:27.840Z,1003.28
2022-10-18T11:24:27.830Z,1003.27
2022-10-18T11:25:27.825Z,1003.30
2022-10-18T11:26:27.811Z,1003.27
2022-10-18T11:27:27.832Z,1003.32
2022-10-18T11:28:27.836Z,1003.27
2022-10-18T11:29:27.798Z,1003.35
2022-10-18T11:30:27.776Z,1003.29
2022-10-18T11:31:27.774Z,1003.29
2022-10-18T11:32:27.787Z,1003.33
2022-10-18T11:33:50.033Z,1003.24
2022-10-18T11:34:29.756Z,1003.24
2022-10-18T11:35:27.742Z,1003.32
2022-10-18T11:36:27.733Z,1003.26
2022-10-18T11:37:31.093Z,1003.24
2022-10-18T11:38:29.719Z,1003.22
2022-10-18T11:39:27.713Z,1003.31
2022-10-18T11:40:27.712Z,1003.29
2022-10-18T11:41:27.696Z,1003.26
2022-10-18T11:42:27.712Z,1003.22
2022-10-18T11:43:38.937Z,1003.14
2022-10-18T11:44:29.671Z,1003.18
2022-10-18T11:45:27.801Z,1003.17
2022-10-18T11:46:27.660Z,1003.19
2022-10-18T11:47:27.671Z,1003.05
2022-10-18T11:48:27.642Z,1003.05
2022-10-18T11:49:27.632Z,1003.09
2022-10-18T11:50:27.669Z,1003.12
2022-10-18T11:51:34.033Z,1003.09
2022-10-18T11:52:29.630Z,1003.09
2022-10-18T11:53:27.608Z,1003.05
2022-10-18T11:54:27.629Z,1003.06
2022-10-18T11:55:30.405Z,1003.05
2022-10-18T11:56:28.584Z,1003.00
2022-10-18T11:57:27.605Z,1002.97
2022-10-18T11:58:27.570Z,1003.00
2022-10-18T11:59:27.562Z,1003.02
2022-10-18T12:01:28.812Z,1003.07
2022-10-18T12:02:27.594Z,1003.05
2022-10-18T12:03:27.524Z,1002.99
2022-10-18T12:04:27.516Z,1002.99
2022-10-18T12:05:27.511Z,1002.93
2022-10-18T12:06:27.506Z,1003.00
2022-10-18T12:07:31.634Z,1002.95
2022-10-18T12:08:28.487Z,1002.95
2022-10-18T12:09:27.494Z,1002.94
2022-10-18T12:10:39.288Z,1002.96